»·PEaware :: N129DQ KMFR-KOTH

N129DQ :: KMFR-KOTH

FLIGHT INFORMATION

Flight Status: Arrived
Operator: Privately registered:
United States
More flights under this callsign
Pilot: Doug M. (13043)
Aircraft: MOONEY M-20K/M ENCORE BRAVO
(M20T)
More flights by this aircraft type
Origin: KMFR Rogue Valley Intl-Medford
United States
Destination: KOTH North Bend Mun
United States
More flights between these airports :: More routes between these airports
Route: OED WZZRD RBG
File this flight plan on PilotEdge
Remarks:
Altitude:
(Current/Filed)
9,500ft
Speed:
(Current/Filed)
180kts
Departed: 02-Sep-18 01:41 PM
Arrived: 02-Sep-18 02:48 PM
Distance/Time
Traveled:
87nm/1:07
Distance/Time
To Go:
Arrived

Flight Plot

Page will automatically refresh every two minutes.

Flight plan parsing failed; only flown route is shown


Map Options




Map Legend


Flown Route
Filed Route
Departure Airport
Arrival Airport
Navaid (VOR, NDB)
Fix

Horizontal Profiles

Position Reports

Time Latitude Longitude Heading Altitude Ground
Speed
02-Sep-18 13:29 42.379341 -122.878639 249 1317ft 0kts
02-Sep-18 13:30 42.379341 -122.878639 249 1317ft 0kts
02-Sep-18 13:31 42.379341 -122.878639 249 1317ft 0kts
02-Sep-18 13:32 42.379341 -122.878639 249 1317ft 0kts
02-Sep-18 13:33 42.379341 -122.878639 249 1317ft 0kts
02-Sep-18 13:34 42.379341 -122.878639 249 1317ft 0kts
02-Sep-18 13:35 42.379341 -122.878639 249 1317ft 0kts
02-Sep-18 13:36 42.379341 -122.878639 249 1317ft 0kts
02-Sep-18 13:37 42.379341 -122.878639 249 1317ft 0kts
02-Sep-18 13:38 42.379341 -122.878639 249 1317ft 0kts
02-Sep-18 13:39 42.382134 -122.878648 337 1317ft 27kts
02-Sep-18 13:40 42.385761 -122.880170 71 1317ft 0kts
02-Sep-18 13:41 42.385761 -122.880170 71 1317ft 0kts
02-Sep-18 13:42 42.385907 -122.879006 152 1317ft 16kts
02-Sep-18 13:43 42.358565 -122.867754 189 1978ft 138kts
02-Sep-18 13:44 42.355442 -122.909696 331 3177ft 156kts
02-Sep-18 13:45 42.395486 -122.935946 355 4372ft 163kts
02-Sep-18 13:46 42.420120 -122.891158 73 5559ft 165kts
02-Sep-18 13:47 42.441148 -122.839851 24 6753ft 166kts
02-Sep-18 13:48 42.463758 -122.826972 23 7390ft 167kts
02-Sep-18 13:49 42.506230 -122.803111 23 8576ft 168kts
02-Sep-18 13:50 42.550248 -122.778513 23 9495ft 185kts
02-Sep-18 13:51 42.589311 -122.726898 50 9499ft 206kts
02-Sep-18 13:52 42.623723 -122.669760 52 9499ft 208kts
02-Sep-18 13:53 42.632746 -122.654574 52 9499ft 208kts
02-Sep-18 13:54 42.669156 -122.592923 52 9499ft 209kts
02-Sep-18 13:55 42.705350 -122.531320 52 9499ft 209kts
02-Sep-18 13:56 42.741646 -122.469372 52 9499ft 209kts
02-Sep-18 13:57 42.777765 -122.407580 52 9498ft 207kts
02-Sep-18 13:58 42.812373 -122.348205 52 9498ft 192kts
02-Sep-18 13:59 42.844626 -122.292189 50 9500ft 187kts
02-Sep-18 14:00 42.874216 -122.245178 50 9499ft 186kts
02-Sep-18 14:01 42.874216 -122.245178 50 9499ft 186kts
02-Sep-18 14:02 42.874216 -122.245178 50 9499ft 186kts
02-Sep-18 14:03 42.882477 -122.231537 50 9478ft 188kts
02-Sep-18 14:04 42.882477 -122.231537 50 9478ft 188kts
02-Sep-18 14:05 42.882477 -122.231537 50 9478ft 188kts
02-Sep-18 14:05 42.882477 -122.231537 50 9478ft 188kts
02-Sep-18 14:07 42.885980 -122.225632 50 9474ft 189kts
02-Sep-18 14:08 42.919345 -122.169663 50 9472ft 191kts
02-Sep-18 14:09 42.952941 -122.113313 50 9472ft 191kts
02-Sep-18 14:09 42.973781 -122.078344 50 9472ft 191kts
02-Sep-18 14:10 42.976107 -122.074442 50 9472ft 191kts
02-Sep-18 14:11 43.008658 -122.031604 3 9547ft 186kts
02-Sep-18 14:12 43.018547 -122.088831 254 9486ft 197kts
02-Sep-18 14:14 43.019007 -122.174821 279 9471ft 194kts
02-Sep-18 14:14 43.026719 -122.235406 281 9472ft 194kts
02-Sep-18 14:15 43.036961 -122.307757 283 9471ft 195kts
02-Sep-18 14:16 43.047519 -122.381314 282 9472ft 198kts
02-Sep-18 14:17 43.058107 -122.455444 282 9536ft 199kts
02-Sep-18 14:18 43.068693 -122.529862 282 9537ft 200kts
02-Sep-18 14:19 43.079323 -122.604961 282 9537ft 201kts
02-Sep-18 14:20 43.089675 -122.678448 281 9535ft 201kts
02-Sep-18 14:21 43.100051 -122.752469 281 9535ft 201kts
02-Sep-18 14:22 43.110449 -122.827092 282 9536ft 199kts
02-Sep-18 14:23 43.120849 -122.902069 282 9537ft 207kts
02-Sep-18 14:24 43.129699 -122.966229 282 9537ft 216kts
02-Sep-18 14:25 43.140867 -123.047503 282 9537ft 218kts
02-Sep-18 14:26 43.152016 -123.129079 282 9537ft 218kts
02-Sep-18 14:27 43.163185 -123.211186 282 9329ft 219kts
02-Sep-18 14:28 43.158953 -123.291353 231 9083ft 229kts
02-Sep-18 14:29 43.116247 -123.270414 74 8291ft 219kts
02-Sep-18 14:30 43.149787 -123.284460 267 8369ft 191kts
02-Sep-18 14:31 43.154126 -123.355145 293 8502ft 200kts
02-Sep-18 14:32 43.175100 -123.426603 294 8129ft 202kts
02-Sep-18 14:33 43.196203 -123.497340 295 7649ft 200kts
02-Sep-18 14:34 43.217123 -123.567517 295 7025ft 197kts
02-Sep-18 14:35 43.237744 -123.636776 295 6425ft 195kts
02-Sep-18 14:36 43.258041 -123.705007 294 5861ft 192kts
02-Sep-18 14:37 43.277842 -123.771911 295 4825ft 187kts
02-Sep-18 14:38 43.297135 -123.837332 295 3517ft 183kts
02-Sep-18 14:39 43.316230 -123.902408 297 3557ft 187kts
02-Sep-18 14:40 43.335659 -123.968595 297 3085ft 186kts
02-Sep-18 14:41 43.354097 -124.032539 298 2556ft 163kts
02-Sep-18 14:42 43.354300 -124.087507 236 2383ft 167kts
02-Sep-18 14:43 43.334921 -124.117436 235 2050ft 167kts
02-Sep-18 14:44 43.322040 -124.155374 287 1699ft 145kts
02-Sep-18 14:45 43.342865 -124.190225 332 1480ft 94kts
02-Sep-18 14:46 43.364452 -124.206552 337 1210ft 83kts
02-Sep-18 14:47 43.383798 -124.220039 338 859ft 81kts
02-Sep-18 14:48 43.404141 -124.234149 335 208ft 80kts
02-Sep-18 14:49 43.415544 -124.243080 277 6ft 13kts
02-Sep-18 14:50 43.414958 -124.245059 280 6ft 16kts

Navigation Log

Ident Type
Flight plan parsing failed, navigation log unavailable